Terminal Aerodrome Forecast
Issued by NWS Wilmington, OH

Current Version | Previous Version | Graphics & Text | Print | Product List | Glossary On
Versions: 1 2 3 4 5 6 7 8 9 10 11 12 13 14 15 16
000
FTUS41 KILN 201700
TAFCMH
TAF
KCMH 201740Z 2018/2118 17008KT P6SM FEW050 SCT250
     FM210000 16003KT P6SM SCT050 BKN250
     FM211500 22008KT P6SM SCT050 BKN150=

USA.gov is the U.S. government's official web portal to all federal, state and local government web resources and services.